Time;durP1;ratioP1;P1;durP2;ratioP2;P2;SDS_P1;SDS_P2;PMS_P1;PMS_P2;Temp;Humidity;BMP_temperature;BMP_pressure;BME280_temperature;BME280_humidity;BME280_pressure;Samples;Min_cycle;Max_cycle;Signal;HPM_P1;HPM_P2
2022/07/20 00:01:30;;;;;;;2.80;2.60;;;22.40;77.20;;;;;;5014531;28;20282;-82
2022/07/20 00:03:58;;;;;;;4.25;3.60;;;22.30;77.50;;;;;;5014393;28;20306;-82
2022/07/20 00:06:26;;;;;;;3.28;2.88;;;22.30;76.90;;;;;;5014435;28;20306;-82
2022/07/20 00:11:42;;;;;;;3.40;3.10;;;22.20;78.10;;;;;;5014507;28;20206;-82
2022/07/20 00:14:10;;;;;;;2.95;2.75;;;22.20;79.00;;;;;;5014501;28;20231;-82
2022/07/20 00:16:38;;;;;;;2.88;2.67;;;22.20;79.30;;;;;;5014497;28;20227;-82
2022/07/20 00:19:07;;;;;;;2.78;2.58;;;22.10;79.50;;;;;;5014403;28;20207;-82
2022/07/20 00:21:35;;;;;;;2.70;2.50;;;22.10;80.10;;;;;;5014166;28;20219;-82
2022/07/20 00:24:03;;;;;;;2.92;2.65;;;22.10;79.60;;;;;;5014113;28;20223;-82
2022/07/20 00:26:32;;;;;;;2.42;2.22;;;22.10;79.70;;;;;;5014008;28;20318;-82
2022/07/20 00:29:02;;;;;;;2.78;2.55;;;22.10;80.20;;;;;;5014219;28;20245;-82
2022/07/20 00:31:30;;;;;;;2.20;2.00;;;22.10;80.20;;;;;;5014107;28;20249;-82
2022/07/20 00:33:59;;;;;;;4.57;2.90;;;22.00;80.30;;;;;;5013925;28;20289;-82
2022/07/20 00:36:28;;;;;;;2.67;2.47;;;22.00;80.60;;;;;;5014234;28;20207;-82
2022/07/20 00:38:56;;;;;;;4.88;2.65;;;22.00;81.30;;;;;;5014048;28;20241;-82
2022/07/20 00:41:24;;;;;;;2.05;1.95;;;21.90;80.60;;;;;;5013976;28;20202;-82
2022/07/20 00:43:54;;;;;;;2.67;2.47;;;21.90;80.70;;;;;;5014011;28;20269;-82
2022/07/20 00:46:24;;;;;;;2.00;1.90;;;21.90;81.30;;;;;;5013428;28;20250;-82
2022/07/20 00:48:52;;;;;;;2.25;2.10;;;21.80;81.30;;;;;;5014147;28;20203;-82
2022/07/20 00:51:21;;;;;;;2.10;2.00;;;21.80;81.40;;;;;;5013692;28;20241;-82
2022/07/20 00:53:49;;;;;;;2.95;2.33;;;21.80;81.30;;;;;;5013349;28;20283;-82
2022/07/20 00:56:19;;;;;;;2.35;2.17;;;21.70;81.30;;;;;;5013559;28;20237;-82
2022/07/20 00:58:48;;;;;;;2.30;2.20;;;21.70;81.90;;;;;;5013757;28;20211;-82
2022/07/20 01:01:18;;;;;;;3.00;2.30;;;21.60;82.00;;;;;;5013595;28;20294;-82
2022/07/20 01:03:49;;;;;;;2.90;2.60;;;21.60;82.30;;;;;;5013668;28;20238;-82
2022/07/20 01:06:17;;;;;;;2.38;2.17;;;21.60;82.70;;;;;;5012581;28;20223;-82
2022/07/20 01:08:48;;;;;;;3.28;2.13;;;21.50;82.80;;;;;;5013620;28;20211;-82
2022/07/20 01:11:17;;;;;;;2.83;2.63;;;21.50;83.10;;;;;;5013160;28;20290;-82
2022/07/20 01:13:45;;;;;;;2.47;2.22;;;21.50;83.30;;;;;;5013183;28;20218;-82
2022/07/20 01:16:14;;;;;;;2.10;2.00;;;21.50;83.30;;;;;;5013618;28;20250;-82
2022/07/20 01:18:42;;;;;;;2.25;2.05;;;21.50;84.10;;;;;;5013320;28;20211;-82
2022/07/20 01:21:12;;;;;;;2.40;2.20;;;21.50;84.20;;;;;;5013862;28;20211;-82
2022/07/20 01:23:40;;;;;;;2.55;2.35;;;21.40;84.50;;;;;;5013266;28;20237;-81
2022/07/20 01:26:08;;;;;;;3.95;2.20;;;21.40;85.60;;;;;;5012943;28;20243;-81
2022/07/20 01:28:36;;;;;;;2.20;2.00;;;21.40;85.00;;;;;;5013359;28;20211;-81
2022/07/20 01:31:05;;;;;;;2.47;2.00;;;21.40;86.20;;;;;;5013124;28;20242;-81
2022/07/20 01:33:33;;;;;;;2.45;1.92;;;21.30;85.30;;;;;;5012889;28;20207;-82
2022/07/20 01:36:01;;;;;;;2.20;1.92;;;21.30;85.60;;;;;;5013228;28;20238;-82
2022/07/20 01:38:31;;;;;;;3.40;2.70;;;21.30;85.50;;;;;;5013140;28;20268;-82
2022/07/20 01:40:59;;;;;;;2.28;2.17;;;21.20;86.10;;;;;;5012940;28;20221;-82
2022/07/20 01:43:28;;;;;;;4.53;2.42;;;21.20;86.10;;;;;;5013411;28;20235;-82
2022/07/20 01:45:56;;;;;;;2.42;2.00;;;21.20;86.60;;;;;;5013029;28;20295;-82
2022/07/20 01:48:24;;;;;;;4.40;2.50;;;21.20;87.10;;;;;;5013043;28;20203;-82
2022/07/20 01:50:53;;;;;;;2.53;2.17;;;21.20;87.10;;;;;;5012777;28;20211;-82
2022/07/20 01:53:21;;;;;;;2.08;1.95;;;21.20;86.80;;;;;;5013072;28;20208;-82
2022/07/20 01:55:52;;;;;;;2.22;2.03;;;21.10;87.80;;;;;;5012704;28;20353;-82
2022/07/20 01:58:21;;;;;;;2.55;2.35;;;21.10;88.60;;;;;;5012721;28;20270;-82
2022/07/20 02:00:50;;;;;;;2.50;2.30;;;21.10;88.70;;;;;;5012781;28;20207;-82
2022/07/20 02:03:19;;;;;;;3.25;2.60;;;21.00;88.90;;;;;;5012690;28;20221;-82
2022/07/20 02:05:48;;;;;;;3.42;2.42;;;21.00;88.60;;;;;;5012688;28;20313;-82
2022/07/20 02:08:16;;;;;;;2.78;2.20;;;21.00;88.60;;;;;;5012844;28;20238;-81
2022/07/20 02:10:44;;;;;;;2.40;2.17;;;21.00;89.90;;;;;;5012787;28;20238;-82
2022/07/20 02:13:14;;;;;;;2.47;2.28;;;20.90;90.20;;;;;;5012787;28;20246;-82
2022/07/20 02:18:28;;;;;;;2.17;2.05;;;20.90;90.50;;;;;;5015878;28;20206;-82
2022/07/20 02:20:57;;;;;;;2.50;2.30;;;20.90;90.20;;;;;;5016625;28;20261;-81
2022/07/20 02:23:25;;;;;;;2.10;1.98;;;20.90;90.40;;;;;;5016385;28;20210;-82
2022/07/20 02:25:53;;;;;;;2.47;2.28;;;20.90;90.30;;;;;;5016641;28;20262;-82
2022/07/20 02:28:23;;;;;;;1.73;1.63;;;20.80;90.40;;;;;;5016702;28;20231;-82
2022/07/20 02:30:51;;;;;;;2.42;2.22;;;20.80;90.70;;;;;;5016364;28;20237;-81
2022/07/20 02:33:20;;;;;;;3.38;2.63;;;20.80;90.60;;;;;;5016327;28;20250;-81
2022/07/20 02:35:48;;;;;;;1.77;1.63;;;20.80;90.80;;;;;;5016151;28;20254;-81
2022/07/20 02:38:17;;;;;;;3.05;1.77;;;20.80;91.10;;;;;;5016337;28;20230;-81
2022/07/20 02:40:45;;;;;;;2.60;2.17;;;20.70;91.20;;;;;;5016203;28;20203;-81
2022/07/20 02:43:14;;;;;;;2.22;2.03;;;20.70;91.40;;;;;;5016588;28;20203;-81
2022/07/20 02:45:44;;;;;;;2.42;2.22;;;20.70;91.00;;;;;;5016162;28;20289;-81
2022/07/20 02:48:12;;;;;;;2.22;2.03;;;20.70;91.30;;;;;;5015875;28;20245;-81
2022/07/20 02:50:42;;;;;;;2.25;2.10;;;20.60;91.20;;;;;;5015739;28;20210;-81
2022/07/20 02:53:12;;;;;;;2.30;2.10;;;20.60;91.90;;;;;;5016061;28;20210;-81
2022/07/20 02:55:41;;;;;;;2.45;2.25;;;20.60;92.30;;;;;;5016101;28;20227;-81
2022/07/20 02:58:10;;;;;;;3.65;2.22;;;20.50;92.10;;;;;;5015726;28;20203;-82
2022/07/20 03:00:38;;;;;;;3.63;2.28;;;20.60;92.60;;;;;;5015908;28;20207;-82
2022/07/20 03:03:09;;;;;;;2.30;2.10;;;20.50;92.60;;;;;;5015850;28;20227;-82
2022/07/20 03:05:38;;;;;;;2.50;2.08;;;20.50;92.80;;;;;;5015825;28;20293;-82
2022/07/20 03:08:07;;;;;;;2.50;2.30;;;20.50;92.90;;;;;;5015677;28;20227;-81
2022/07/20 03:10:36;;;;;;;1.95;1.85;;;20.50;92.60;;;;;;5015597;28;20207;-82
2022/07/20 03:13:05;;;;;;;2.80;2.55;;;20.50;92.40;;;;;;5015508;28;20208;-82
2022/07/20 03:15:33;;;;;;;12.48;3.10;;;20.50;93.00;;;;;;5015695;28;20227;-82
2022/07/20 03:18:01;;;;;;;3.10;2.40;;;20.50;93.50;;;;;;5015305;28;20241;-82
2022/07/20 03:20:34;;;;;;;2.50;2.30;;;20.50;93.50;;;;;;5015335;28;20214;-82
2022/07/20 03:23:03;;;;;;;2.53;1.90;;;20.50;92.90;;;;;;5015629;28;20207;-82
2022/07/20 03:25:32;;;;;;;2.60;2.17;;;20.50;92.60;;;;;;5015195;28;20223;-82
2022/07/20 03:28:01;;;;;;;2.33;2.13;;;20.50;92.90;;;;;;5014576;28;20223;-82
2022/07/20 03:30:30;;;;;;;3.38;2.65;;;20.50;93.20;;;;;;5014797;28;20215;-82
2022/07/20 03:32:59;;;;;;;2.72;2.15;;;20.50;93.80;;;;;;5015473;28;20231;-82
2022/07/20 03:35:27;;;;;;;2.08;1.88;;;20.40;93.70;;;;;;5015175;28;20334;-82
2022/07/20 03:37:57;;;;;;;2.22;2.05;;;20.40;93.80;;;;;;5015201;28;20299;-82
2022/07/20 03:40:25;;;;;;;2.90;2.70;;;20.40;94.80;;;;;;5014915;28;20230;-82
2022/07/20 03:42:54;;;;;;;2.28;2.03;;;20.40;94.00;;;;;;5015283;28;20227;-81
2022/07/20 03:45:22;;;;;;;2.88;2.50;;;20.40;94.00;;;;;;5014863;28;20219;-82
2022/07/20 03:47:55;;;;;;;3.40;2.50;;;20.40;94.30;;;;;;5014846;28;20230;-82
2022/07/20 03:50:24;;;;;;;2.42;2.20;;;20.50;94.00;;;;;;5014910;28;20282;-81
2022/07/20 03:52:52;;;;;;;2.35;2.20;;;20.60;93.80;;;;;;5014484;28;20239;-81
2022/07/20 03:55:23;;;;;;;3.05;2.80;;;20.70;93.20;;;;;;5014769;28;20227;-81
2022/07/20 03:57:51;;;;;;;3.95;2.88;;;20.70;92.60;;;;;;5014969;28;20192;-81
2022/07/20 04:00:19;;;;;;;2.60;2.40;;;20.70;93.40;;;;;;5014298;28;20223;-81
2022/07/20 04:02:48;;;;;;;3.00;2.70;;;20.80;93.10;;;;;;5014854;28;20319;-81
2022/07/20 04:05:16;;;;;;;2.90;2.70;;;20.80;92.90;;;;;;5014968;28;20231;-81
2022/07/20 04:07:45;;;;;;;2.30;2.10;;;20.80;93.20;;;;;;5014347;28;20258;-81
2022/07/20 04:10:13;;;;;;;3.83;2.72;;;20.80;93.50;;;;;;5014378;28;20227;-82
2022/07/20 04:12:50;;;;;;;2.47;2.28;;;20.90;92.40;;;;;;5014149;28;20202;-81
2022/07/20 04:15:18;;;;;;;2.70;2.47;;;20.90;93.70;;;;;;5014443;28;20295;-81
2022/07/20 04:17:46;;;;;;;4.30;2.53;;;20.90;93.60;;;;;;5014549;28;20227;-81
2022/07/20 04:20:15;;;;;;;3.15;2.78;;;20.90;93.20;;;;;;5014150;28;20235;-81
2022/07/20 04:22:43;;;;;;;2.83;2.63;;;21.10;93.00;;;;;;5014320;28;20242;-81
2022/07/20 04:25:11;;;;;;;6.22;2.53;;;21.10;92.90;;;;;;5014529;28;20254;-81
2022/07/20 04:27:39;;;;;;;3.95;2.60;;;21.20;92.60;;;;;;5014086;28;20323;-81
2022/07/20 04:30:11;;;;;;;6.90;3.33;;;21.30;92.60;;;;;;5014272;28;20290;-81
2022/07/20 04:32:39;;;;;;;3.80;2.30;;;21.30;92.60;;;;;;5014168;28;20280;-81
2022/07/20 04:35:08;;;;;;;3.45;2.83;;;21.30;92.60;;;;;;5013879;28;20314;-81
2022/07/20 04:37:38;;;;;;;2.85;2.63;;;21.30;92.40;;;;;;5014116;28;20203;-81
2022/07/20 04:40:07;;;;;;;2.45;2.13;;;21.20;92.60;;;;;;5013815;28;20278;-81
2022/07/20 04:42:35;;;;;;;3.15;2.70;;;21.20;92.70;;;;;;5014162;28;20242;-81
2022/07/20 04:45:04;;;;;;;2.40;2.20;;;21.10;93.00;;;;;;5014077;28;20227;-81
2022/07/20 04:47:34;;;;;;;4.93;2.78;;;21.10;93.10;;;;;;5013667;28;20247;-81
2022/07/20 04:50:02;;;;;;;4.30;3.13;;;21.10;93.60;;;;;;5013786;28;20226;-82
2022/07/20 04:52:30;;;;;;;3.65;3.22;;;21.10;94.10;;;;;;5013425;28;20218;-81
2022/07/20 04:54:58;;;;;;;3.70;2.75;;;21.10;93.90;;;;;;5013315;28;20231;-81
2022/07/20 04:57:27;;;;;;;2.38;2.17;;;21.20;94.50;;;;;;5013911;28;20237;-81
2022/07/20 04:59:55;;;;;;;3.85;2.78;;;21.10;94.40;;;;;;5013762;28;20234;-88
2022/07/20 05:02:23;;;;;;;3.83;2.33;;;21.20;95.70;;;;;;5013391;28;20266;-88
2022/07/20 05:04:53;;;;;;;3.47;3.17;;;21.30;95.30;;;;;;5013675;28;20242;-88
2022/07/20 05:07:21;;;;;;;3.97;2.70;;;21.30;94.00;;;;;;5013338;28;20219;-87
2022/07/20 05:09:49;;;;;;;3.15;2.85;;;21.40;93.90;;;;;;5013288;28;20268;-88
2022/07/20 05:12:18;;;;;;;4.10;3.75;;;21.40;93.90;;;;;;5013469;28;20211;-88
2022/07/20 05:14:46;;;;;;;3.83;3.40;;;21.50;94.00;;;;;;4993867;28;20319;-88
2022/07/20 05:17:16;;;;;;;5.65;3.63;;;21.50;93.80;;;;;;4993623;28;20286;-88
2022/07/20 05:19:44;;;;;;;4.97;3.38;;;21.50;94.00;;;;;;4993735;28;20212;-87
2022/07/20 05:22:15;;;;;;;3.95;3.15;;;21.60;94.30;;;;;;4998595;28;20286;-87
2022/07/20 05:24:43;;;;;;;4.45;3.00;;;21.60;94.40;;;;;;5013343;28;20223;-87
2022/07/20 05:27:11;;;;;;;4.85;3.47;;;21.60;94.20;;;;;;5013474;28;20231;-88
2022/07/20 05:29:39;;;;;;;12.23;3.72;;;21.70;94.00;;;;;;5013417;28;20219;-88
2022/07/20 05:32:08;;;;;;;5.03;3.67;;;21.70;93.80;;;;;;5012729;28;20226;-85
2022/07/20 05:34:36;;;;;;;3.92;3.03;;;21.80;94.00;;;;;;5010090;28;20230;-87
2022/07/20 05:37:05;;;;;;;6.25;3.95;;;21.90;93.60;;;;;;5013990;28;20226;-87
2022/07/20 05:39:34;;;;;;;5.03;3.47;;;21.90;93.60;;;;;;5013733;28;20286;-87
2022/07/20 05:42:02;;;;;;;4.00;3.10;;;22.00;93.90;;;;;;5013252;28;20230;-87
2022/07/20 05:44:31;;;;;;;7.60;3.05;;;22.00;93.50;;;;;;5013090;28;20266;-87
2022/07/20 05:47:01;;;;;;;10.82;3.90;;;22.10;93.10;;;;;;5013240;28;20207;-85
2022/07/20 05:49:30;;;;;;;4.40;3.13;;;22.10;93.30;;;;;;5013326;28;20242;-87
2022/07/20 05:51:58;;;;;;;6.53;4.00;;;22.20;93.10;;;;;;5013014;28;20289;-81
2022/07/20 05:54:27;;;;;;;8.10;4.05;;;22.30;93.10;;;;;;5013146;28;20253;-81
2022/07/20 05:56:56;;;;;;;5.28;3.63;;;22.40;93.10;;;;;;5013711;28;20223;-81
2022/07/20 05:59:25;;;;;;;6.45;3.70;;;22.50;93.10;;;;;;5013459;28;20291;-80
2022/07/20 06:01:53;;;;;;;5.63;3.55;;;22.50;92.60;;;;;;5013057;28;20242;-80
2022/07/20 06:04:21;;;;;;;4.38;3.22;;;22.60;92.30;;;;;;5012685;28;20219;-82
2022/07/20 06:06:49;;;;;;;6.93;3.65;;;22.60;92.10;;;;;;5012717;28;20207;-82
2022/07/20 06:09:18;;;;;;;4.07;3.67;;;22.80;92.10;;;;;;5011935;28;20300;-82
2022/07/20 06:11:50;;;;;;;4.90;3.42;;;22.80;91.20;;;;;;5012305;28;20206;-83
2022/07/20 06:14:20;;;;;;;9.25;3.92;;;22.90;90.80;;;;;;5012692;28;20235;-83
2022/07/20 06:16:49;;;;;;;3.47;2.65;;;22.90;90.10;;;;;;5012461;28;20283;-83
2022/07/20 06:19:17;;;;;;;7.90;3.95;;;23.00;89.70;;;;;;5012801;28;20210;-83
2022/07/20 06:21:45;;;;;;;4.93;3.45;;;23.10;89.90;;;;;;5012033;28;20237;-83
2022/07/20 06:24:14;;;;;;;4.18;2.85;;;23.20;89.10;;;;;;5013120;28;20231;-82
2022/07/20 06:26:45;;;;;;;3.63;3.25;;;23.30;89.00;;;;;;5013074;28;20262;-83
2022/07/20 06:29:14;;;;;;;4.47;3.22;;;23.40;86.50;;;;;;5012620;28;20238;-82
2022/07/20 06:31:44;;;;;;;3.08;2.63;;;23.50;86.70;;;;;;5012773;28;20246;-82
2022/07/20 06:34:32;;;;;;;3.10;2.80;;;23.60;85.00;;;;;;5012908;28;20238;-82
2022/07/20 06:37:00;;;;;;;2.50;2.30;;;23.70;84.20;;;;;;5013345;28;20269;-82
2022/07/20 06:39:29;;;;;;;3.60;2.70;;;23.80;81.90;;;;;;5013319;28;20262;-83
2022/07/20 06:41:57;;;;;;;3.42;2.65;;;24.00;79.90;;;;;;5013036;28;20215;-83
2022/07/20 06:44:26;;;;;;;5.53;3.10;;;24.20;79.70;;;;;;5013337;28;20223;-83
2022/07/20 06:46:56;;;;;;;4.30;2.70;;;24.30;79.30;;;;;;5011601;28;20254;-83
2022/07/20 06:49:26;;;;;;;3.03;2.70;;;24.30;78.50;;;;;;5012373;28;20223;-83
2022/07/20 06:51:54;;;;;;;10.57;2.72;;;24.30;78.60;;;;;;5012763;28;20234;-83
2022/07/20 06:54:23;;;;;;;2.97;2.70;;;24.40;78.80;;;;;;5013313;28;20254;-83
2022/07/20 06:56:51;;;;;;;13.25;3.53;;;24.50;78.60;;;;;;5012799;28;20211;-83
2022/07/20 06:59:19;;;;;;;2.92;2.72;;;24.60;77.90;;;;;;5013325;28;20238;-83
2022/07/20 07:01:48;;;;;;;8.07;2.97;;;24.80;77.70;;;;;;5012321;28;20199;-82
2022/07/20 07:04:18;;;;;;;5.70;2.80;;;24.90;77.20;;;;;;5014073;28;20238;-82
2022/07/20 07:06:46;;;;;;;3.70;3.03;;;25.20;75.90;;;;;;5016473;28;20227;-82
2022/07/20 07:09:15;;;;;;;3.83;3.10;;;25.50;75.40;;;;;;5015890;28;20299;-82
2022/07/20 07:11:43;;;;;;;3.63;3.33;;;25.90;75.40;;;;;;5015739;28;20238;-82
2022/07/20 07:14:11;;;;;;;2.83;2.63;;;26.20;74.20;;;;;;5015888;28;20231;-82
2022/07/20 07:16:40;;;;;;;4.93;3.20;;;26.50;73.40;;;;;;5016177;28;20253;-82
2022/07/20 07:19:08;;;;;;;2.67;2.42;;;26.90;73.00;;;;;;5005897;28;20211;-82
2022/07/20 07:21:37;;;;;;;6.47;3.15;;;27.20;72.90;;;;;;5015912;28;20291;-82
2022/07/20 07:24:13;;;;;;;5.30;2.65;;;27.50;71.10;;;;;;5014676;28;20234;-82
2022/07/20 07:26:41;;;;;;;2.88;2.58;;;28.00;69.30;;;;;;5016116;28;20294;-82
2022/07/20 07:29:09;;;;;;;4.75;2.45;;;28.50;68.20;;;;;;5015777;28;20218;-83
2022/07/20 07:31:38;;;;;;;2.47;2.33;;;29.30;66.30;;;;;;5015711;28;20219;-83
2022/07/20 07:34:06;;;;;;;4.45;2.80;;;29.80;64.80;;;;;;5015404;28;20231;-83
2022/07/20 07:36:35;;;;;;;4.32;2.80;;;30.90;64.30;;;;;;5015547;28;20298;-83
2022/07/20 07:39:07;;;;;;;2.90;2.70;;;31.90;61.30;;;;;;5015884;28;20203;-83
2022/07/20 07:41:35;;;;;;;3.97;2.97;;;33.40;59.00;;;;;;5014345;28;20202;-83
2022/07/20 07:44:04;;;;;;;2.85;2.47;;;34.20;56.90;;;;;;5015611;28;20226;-83
2022/07/20 07:46:32;;;;;;;2.90;2.53;;;35.40;54.40;;;;;;5015351;28;20245;-81
2022/07/20 07:49:01;;;;;;;4.15;2.88;;;35.50;53.20;;;;;;5014750;28;20214;-80
2022/07/20 07:51:29;;;;;;;3.20;2.90;;;37.00;51.70;;;;;;5015016;28;20229;-79
2022/07/20 07:53:57;;;;;;;5.43;3.47;;;38.50;50.50;;;;;;5015332;28;20305;-79
2022/07/20 07:56:27;;;;;;;4.72;3.55;;;39.30;48.20;;;;;;5015671;28;20237;-79
2022/07/20 07:58:55;;;;;;;2.70;2.50;;;39.80;46.40;;;;;;5015360;28;20237;-79
2022/07/20 08:01:43;;;;;;;6.88;2.75;;;40.30;46.30;;;;;;5015245;28;20210;-80
2022/07/20 08:04:12;;;;;;;4.40;2.72;;;40.80;45.70;;;;;;5015247;28;20310;-82
2022/07/20 08:06:40;;;;;;;3.47;2.85;;;41.30;43.90;;;;;;5015175;28;20253;-85
2022/07/20 08:09:09;;;;;;;2.88;2.25;;;42.20;44.40;;;;;;5014823;28;20242;-82
2022/07/20 08:11:39;;;;;;;2.78;2.50;;;42.30;43.50;;;;;;5015000;28;20263;-82
2022/07/20 08:14:07;;;;;;;2.17;2.08;;;43.10;42.10;;;;;;5014910;28;20230;-82
2022/07/20 08:16:35;;;;;;;2.88;2.33;;;43.80;41.60;;;;;;5014834;28;20202;-92
2022/07/20 08:19:04;;;;;;;2.15;1.85;;;43.90;41.00;;;;;;5015058;28;20264;-83
2022/07/20 08:21:32;;;;;;;2.58;2.38;;;44.00;39.70;;;;;;5015205;28;20203;-87
2022/07/20 08:24:03;;;;;;;2.30;2.10;;;43.90;39.20;;;;;;5015323;28;20222;-85
2022/07/20 08:26:32;;;;;;;3.53;2.33;;;43.70;40.10;;;;;;5015064;28;20209;-85
2022/07/20 08:29:02;;;;;;;3.78;1.90;;;44.00;43.70;;;;;;5015036;28;20257;-85
2022/07/20 08:31:39;;;;;;;4.45;2.53;;;44.30;41.50;;;;;;5015213;28;20202;-82
2022/07/20 08:34:07;;;;;;;3.47;1.98;;;44.50;41.50;;;;;;5014213;28;20238;-85
2022/07/20 08:36:37;;;;;;;5.13;3.47;;;44.60;41.10;;;;;;5014165;28;20223;-86
2022/07/20 08:39:06;;;;;;;2.05;1.80;;;44.80;41.00;;;;;;5013522;28;20226;-84
2022/07/20 08:41:35;;;;;;;3.10;2.38;;;45.00;41.40;;;;;;5014252;28;20233;-84
2022/07/20 08:44:06;;;;;;;2.88;2.53;;;45.30;41.80;;;;;;5014547;28;20252;-84
2022/07/20 08:46:35;;;;;;;2.58;2.30;;;45.30;37.90;;;;;;5013854;28;20277;-84
2022/07/20 08:49:04;;;;;;;2.30;2.10;;;45.50;42.60;;;;;;5014452;28;20202;-84
2022/07/20 08:51:33;;;;;;;6.85;2.50;;;45.50;42.80;;;;;;5013919;28;20253;-85
2022/07/20 08:54:03;;;;;;;2.83;2.17;;;45.50;40.10;;;;;;5013206;28;20233;-84
2022/07/20 08:56:32;;;;;;;3.45;2.10;;;45.60;37.10;;;;;;5014494;28;20230;-85
2022/07/20 08:59:00;;;;;;;2.58;1.85;;;45.90;39.80;;;;;;5014294;28;20210;-84
2022/07/20 09:01:30;;;;;;;2.55;2.10;;;45.60;42.10;;;;;;5013488;28;20206;-85
2022/07/20 09:04:07;;;;;;;3.88;1.70;;;45.50;42.70;;;;;;5013973;28;20210;-84
2022/07/20 09:06:53;;;;;;;2.38;2.17;;;45.90;39.20;;;;;;5013750;28;20298;-84
2022/07/20 09:09:25;;;;;;;6.80;2.17;;;46.40;42.80;;;;;;5013952;28;20229;-84
2022/07/20 09:11:54;;;;;;;2.28;2.08;;;46.70;43.30;;;;;;5014060;28;20229;-84
2022/07/20 09:14:43;;;;;;;1.55;1.45;;;46.60;38.30;;;;;;5013350;28;20253;-84
2022/07/20 09:17:22;;;;;;;2.33;2.13;;;46.40;41.40;;;;;;5013598;28;20206;-84
2022/07/20 09:19:59;;;;;;;2.45;1.95;;;46.50;38.00;;;;;;5012375;28;20186;-84
2022/07/20 09:22:32;;;;;;;1.55;1.45;;;45.90;35.40;;;;;;5012906;28;20198;-84
2022/07/20 09:25:11;;;;;;;1.38;1.25;;;45.00;33.30;;;;;;5013432;28;20300;-84
2022/07/20 09:27:40;;;;;;;2.22;1.60;;;44.10;33.10;;;;;;5011005;28;20257;-83
2022/07/20 09:30:10;;;;;;;1.95;1.63;;;43.80;33.10;;;;;;5012229;28;20211;-84
2022/07/20 09:32:56;;;;;;;1.75;1.58;;;43.40;34.00;;;;;;5013445;28;20237;-84
2022/07/20 09:35:26;;;;;;;10.50;1.80;;;43.00;32.90;;;;;;5011887;28;20260;-84
2022/07/20 09:38:02;;;;;;;1.50;1.40;;;41.90;33.70;;;;;;5013425;28;20210;-83
2022/07/20 09:40:41;;;;;;;2.83;1.70;;;41.20;35.60;;;;;;5013065;28;20206;-84
2022/07/20 09:43:24;;;;;;;1.52;1.40;;;41.20;35.50;;;;;;5012751;28;20229;-89
2022/07/20 09:45:54;;;;;;;1.50;1.40;;;41.30;34.60;;;;;;5013759;28;20250;-89
2022/07/20 09:48:24;;;;;;;2.33;1.65;;;41.70;37.70;;;;;;5013297;28;20206;-90
2022/07/20 09:50:52;;;;;;;5.05;2.05;;;42.00;35.30;;;;;;5012751;28;20214;-90
2022/07/20 09:53:21;;;;;;;1.90;1.73;;;41.90;34.90;;;;;;5013194;28;20202;-89
2022/07/20 09:55:50;;;;;;;1.92;1.70;;;41.80;34.20;;;;;;5013283;28;20226;-89
2022/07/20 09:58:21;;;;;;;1.50;1.40;;;41.40;34.30;;;;;;5013486;28;20210;-90
2022/07/20 10:00:49;;;;;;;1.20;1.20;;;41.20;35.10;;;;;;5010590;28;20190;-89
2022/07/20 10:03:18;;;;;;;2.55;1.88;;;40.80;34.30;;;;;;5013110;28;20198;-90
2022/07/20 10:05:47;;;;;;;3.72;1.55;;;40.30;34.60;;;;;;5012967;28;20226;-89
2022/07/20 10:08:16;;;;;;;2.03;1.90;;;39.90;35.80;;;;;;5013206;28;20202;-89
2022/07/20 10:10:44;;;;;;;1.63;1.52;;;39.70;36.70;;;;;;5011412;28;20219;-88
2022/07/20 10:13:12;;;;;;;1.75;1.65;;;40.10;36.30;;;;;;5013203;28;20198;-89
2022/07/20 10:15:49;;;;;;;1.60;1.50;;;40.50;34.70;;;;;;5012706;28;20222;-89
2022/07/20 10:18:18;;;;;;;2.60;1.85;;;40.70;35.60;;;;;;5012147;28;20213;-88
2022/07/20 10:21:32;;;;;;;1.77;1.67;;;41.30;35.00;;;;;;5012552;28;20213;-89
2022/07/20 10:24:22;;;;;;;7.03;1.60;;;41.60;34.40;;;;;;5012676;28;20242;-89
2022/07/20 10:26:53;;;;;;;2.15;1.60;;;41.80;34.10;;;;;;5012049;28;20253;-89
2022/07/20 10:29:27;;;;;;;1.27;1.25;;;41.60;34.50;;;;;;5011577;28;20202;-88
2022/07/20 10:31:58;;;;;;;6.90;1.77;;;41.00;35.50;;;;;;5012884;28;20261;-88
2022/07/20 10:34:36;;;;;;;1.92;1.83;;;40.10;34.80;;;;;;5013382;28;20249;-89
2022/07/20 10:37:28;;;;;;;3.60;2.00;;;39.90;35.40;;;;;;5013033;28;20233;-88
2022/07/20 10:40:12;;;;;;;3.60;1.80;;;39.20;36.10;;;;;;5016867;28;20207;-88
2022/07/20 10:42:42;;;;;;;1.67;1.58;;;39.40;37.30;;;;;;5016861;28;20235;-88
2022/07/20 10:45:33;;;;;;;1.70;1.60;;;39.80;37.90;;;;;;5016586;28;20214;-88
2022/07/20 10:48:19;;;;;;;1.83;1.73;;;40.30;37.00;;;;;;5016108;28;20223;-88
2022/07/20 10:50:52;;;;;;;2.42;1.60;;;40.60;37.20;;;;;;5016389;28;20246;-88
2022/07/20 10:53:40;;;;;;;1.50;1.40;;;40.60;36.50;;;;;;5016317;28;20226;-88
2022/07/20 10:56:11;;;;;;;3.45;1.88;;;40.40;36.70;;;;;;4999004;28;20206;-88
2022/07/20 10:58:43;;;;;;;1.80;1.70;;;40.40;36.30;;;;;;5016305;28;20210;-88
2022/07/20 11:01:13;;;;;;;3.15;2.22;;;40.40;35.60;;;;;;5016255;28;20213;-88
2022/07/20 11:03:43;;;;;;;1.70;1.60;;;40.60;37.10;;;;;;5016464;28;20228;-88
2022/07/20 11:06:13;;;;;;;1.83;1.70;;;40.70;35.60;;;;;;5016390;28;20234;-88
2022/07/20 11:08:50;;;;;;;2.65;2.45;;;40.80;36.00;;;;;;5016369;28;20210;-89
2022/07/20 11:11:20;;;;;;;4.13;1.83;;;40.90;35.10;;;;;;5015460;28;20222;-88
2022/07/20 11:13:50;;;;;;;2.70;1.63;;;41.20;34.30;;;;;;5015522;28;20269;-88
2022/07/20 11:16:20;;;;;;;2.53;2.08;;;40.90;34.40;;;;;;5016007;28;20207;-88
2022/07/20 11:18:49;;;;;;;1.98;1.55;;;41.00;34.50;;;;;;5016348;28;20201;-88
2022/07/20 11:21:27;;;;;;;1.63;1.52;;;41.30;33.80;;;;;;5004342;28;20195;-88
2022/07/20 11:24:05;;;;;;;1.25;1.20;;;41.50;34.20;;;;;;5006419;28;20223;-88
2022/07/20 11:27:12;;;;;;;1.58;1.48;;;41.70;32.40;;;;;;5014869;28;20297;-88
2022/07/20 11:29:46;;;;;;;1.60;1.50;;;41.80;32.70;;;;;;5015820;28;20233;-88
2022/07/20 11:32:15;;;;;;;1.85;1.75;;;41.90;32.30;;;;;;5015434;28;20313;-88
2022/07/20 11:34:46;;;;;;;1.90;1.80;;;41.90;32.60;;;;;;5015602;28;20304;-88
2022/07/20 11:37:18;;;;;;;1.20;1.20;;;41.90;33.50;;;;;;5015598;28;20289;-88
2022/07/20 11:39:49;;;;;;;1.70;1.60;;;42.20;33.30;;;;;;5016276;28;20195;-87
2022/07/20 11:42:18;;;;;;;1.77;1.67;;;42.00;32.00;;;;;;5015460;28;20229;-87
2022/07/20 11:45:00;;;;;;;3.13;1.80;;;41.80;31.70;;;;;;5015430;28;20230;-87
2022/07/20 11:47:28;;;;;;;1.33;1.23;;;41.80;32.10;;;;;;5015444;28;20203;-87
2022/07/20 11:50:08;;;;;;;1.45;1.35;;;41.80;31.80;;;;;;5014883;28;20210;-87
2022/07/20 11:52:44;;;;;;;2.10;1.30;;;41.80;32.10;;;;;;5015412;28;20241;-87
2022/07/20 11:55:14;;;;;;;6.25;1.20;;;41.90;31.50;;;;;;5015474;28;20238;-87
2022/07/20 11:57:42;;;;;;;1.60;1.40;;;41.90;31.60;;;;;;5015539;28;20290;-87
2022/07/20 12:00:14;;;;;;;1.60;1.50;;;41.90;32.00;;;;;;5015057;28;20237;-87
2022/07/20 12:02:42;;;;;;;2.55;1.77;;;41.40;31.50;;;;;;5015410;28;20203;-87
2022/07/20 12:05:11;;;;;;;6.97;1.75;;;41.30;31.10;;;;;;5015352;28;20210;-87
2022/07/20 12:10:35;;;;;;;1.73;1.63;;;41.70;31.60;;;;;;5012961;28;20230;-87
2022/07/20 12:13:05;;;;;;;2.30;1.80;;;41.90;30.60;;;;;;5014775;28;20237;-88
2022/07/20 12:15:34;;;;;;;1.88;1.73;;;41.00;30.80;;;;;;5015400;28;20230;-88
2022/07/20 12:18:02;;;;;;;3.47;1.77;;;40.30;31.60;;;;;;5014509;28;20202;-88
2022/07/20 12:20:31;;;;;;;1.48;1.38;;;40.20;31.90;;;;;;5014348;28;20194;-87
2022/07/20 12:23:02;;;;;;;4.07;1.65;;;40.70;33.00;;;;;;5014930;28;20253;-87
2022/07/20 12:25:43;;;;;;;2.95;1.80;;;41.00;31.60;;;;;;5014288;28;20222;-83
2022/07/20 12:28:11;;;;;;;2.40;1.95;;;41.00;31.10;;;;;;5014139;28;20203;-83
2022/07/20 12:31:11;;;;;;;1.80;1.70;;;40.90;31.50;;;;;;5011385;28;20286;-83
2022/07/20 12:33:40;;;;;;;2.45;1.90;;;41.20;31.00;;;;;;4996519;28;20207;-82
2022/07/20 12:36:09;;;;;;;1.77;1.42;;;41.00;31.80;;;;;;5014977;28;20230;-82
2022/07/20 13:00:13;;;;;;;1.63;1.52;;;40.30;30.30;;;;;;5106397;27;20610;-87
2022/07/20 13:02:41;;;;;;;2.03;1.83;;;39.50;31.80;;;;;;5080838;28;20227;-87
2022/07/20 13:05:10;;;;;;;1.60;1.50;;;39.50;31.80;;;;;;5089861;28;20199;-86
2022/07/20 13:07:39;;;;;;;1.50;1.40;;;39.40;31.60;;;;;;5088930;28;20200;-87
2022/07/20 13:10:08;;;;;;;1.48;1.38;;;39.40;32.20;;;;;;5089336;28;20250;-87
2022/07/20 13:12:36;;;;;;;2.85;1.70;;;39.00;32.10;;;;;;5124729;22;20231;-83
2022/07/20 13:15:06;;;;;;;1.80;1.70;;;38.90;32.00;;;;;;5108737;28;20207;-83
2022/07/20 13:17:56;;;;;;;3.17;2.10;;;38.90;32.10;;;;;;5109610;28;20306;-82
2022/07/20 13:20:25;;;;;;;9.40;2.47;;;38.70;31.90;;;;;;5101724;28;20195;-82
2022/07/20 13:22:54;;;;;;;1.67;1.58;;;38.50;32.10;;;;;;5094575;28;20341;-84
2022/07/20 13:25:26;;;;;;;6.40;2.20;;;38.10;32.10;;;;;;5080287;28;20200;-85
2022/07/20 13:27:55;;;;;;;7.85;2.20;;;37.90;33.20;;;;;;5091018;28;20187;-85
2022/07/20 13:30:25;;;;;;;3.65;1.63;;;37.80;33.30;;;;;;5109708;28;20207;-83
2022/07/20 13:32:55;;;;;;;2.30;1.80;;;37.40;33.20;;;;;;5110261;28;20219;-82